Time;durP1;ratioP1;P1;durP2;ratioP2;P2;SDS_P1;SDS_P2;PMS_P1;PMS_P2;Temp;Humidity;BMP_temperature;BMP_pressure;BME280_temperature;BME280_humidity;BME280_pressure;Samples;Min_cycle;Max_cycle;Signal;HPM_P1;HPM_P2
2022/09/09 00:02:08;;;;;;;45.85;42.40;;;19.40;75.60;;;;;;5032392;28;20099;-82
2022/09/09 00:04:35;;;;;;;48.88;45.08;;;19.30;75.90;;;;;;5048671;28;20485;-82
2022/09/09 00:07:04;;;;;;;41.92;39.10;;;19.40;75.90;;;;;;5052836;28;20473;-82
2022/09/09 00:09:46;;;;;;;42.88;39.75;;;19.30;76.80;;;;;;5054192;28;20332;-82
2022/09/09 00:12:15;;;;;;;44.58;41.45;;;19.30;75.90;;;;;;5052853;28;20029;-82
2022/09/09 00:14:50;;;;;;;46.55;43.55;;;19.20;76.30;;;;;;5052969;28;20036;-82
2022/09/09 00:17:30;;;;;;;41.33;37.78;;;19.20;76.20;;;;;;5052226;28;20029;-82
2022/09/09 00:20:05;;;;;;;46.85;43.45;;;19.10;76.70;;;;;;5052427;28;20032;-83
2022/09/09 00:22:31;;;;;;;40.97;37.78;;;19.10;77.00;;;;;;5052941;28;20029;-82
2022/09/09 00:25:26;;;;;;;40.83;37.70;;;19.10;77.00;;;;;;5052755;28;20393;-82
2022/09/09 00:27:52;;;;;;;42.20;38.72;;;19.10;76.90;;;;;;5053773;28;20037;-82
2022/09/09 00:30:22;;;;;;;46.67;43.17;;;19.00;77.20;;;;;;5052162;28;20546;-82
2022/09/09 00:32:58;;;;;;;40.83;36.70;;;19.00;77.20;;;;;;5053378;28;20040;-82
2022/09/09 00:35:32;;;;;;;39.78;36.50;;;19.00;77.20;;;;;;5035542;28;20409;-82
2022/09/09 00:38:02;;;;;;;40.72;37.42;;;19.00;77.10;;;;;;5052339;28;20021;-82
2022/09/09 00:40:37;;;;;;;39.97;36.75;;;19.00;77.00;;;;;;5032049;28;20037;-83
2022/09/09 00:43:21;;;;;;;38.55;35.40;;;19.00;77.50;;;;;;5032478;28;20021;-83
2022/09/09 00:45:53;;;;;;;38.00;35.10;;;18.90;78.60;;;;;;5031932;28;20033;-83
2022/09/09 00:48:19;;;;;;;36.83;34.03;;;18.90;78.00;;;;;;5048001;28;20033;-82
2022/09/09 00:50:49;;;;;;;40.25;37.10;;;18.90;77.90;;;;;;5052098;28;20374;-82
2022/09/09 00:53:51;;;;;;;35.67;33.05;;;18.90;78.10;;;;;;5052054;28;20394;-82
2022/09/09 00:56:23;;;;;;;39.22;36.15;;;18.90;78.10;;;;;;5035959;28;20048;-82
2022/09/09 00:59:16;;;;;;;38.47;35.17;;;18.90;78.10;;;;;;5051858;28;20108;-82
2022/09/09 01:01:42;;;;;;;39.30;36.47;;;18.90;78.20;;;;;;5049948;28;20045;-82
2022/09/09 01:04:16;;;;;;;39.80;36.30;;;19.00;78.20;;;;;;5050565;28;20395;-82
2022/09/09 01:06:42;;;;;;;36.95;34.17;;;18.90;78.10;;;;;;5050166;28;20091;-82
2022/09/09 01:09:38;;;;;;;40.35;36.67;;;18.90;78.30;;;;;;5050705;28;20028;-82
2022/09/09 01:12:12;;;;;;;39.55;36.13;;;18.90;78.50;;;;;;5049280;28;20036;-82
2022/09/09 01:14:48;;;;;;;38.08;34.97;;;18.80;79.30;;;;;;5033673;28;20433;-82
2022/09/09 01:17:15;;;;;;;39.65;36.08;;;18.80;78.80;;;;;;5030955;28;20029;-82
2022/09/09 01:19:44;;;;;;;40.17;37.22;;;18.80;78.90;;;;;;5050023;28;20052;-82
2022/09/09 01:22:24;;;;;;;38.28;35.03;;;18.80;79.00;;;;;;5050197;28;20164;-82
2022/09/09 01:25:15;;;;;;;40.47;37.03;;;18.70;79.00;;;;;;5032866;28;20049;-82
2022/09/09 01:27:41;;;;;;;41.55;38.55;;;18.70;79.10;;;;;;5050260;28;20532;-83
2022/09/09 01:30:12;;;;;;;39.13;35.78;;;18.70;79.10;;;;;;5032857;28;20044;-82
2022/09/09 01:32:40;;;;;;;40.67;37.15;;;18.70;79.20;;;;;;5016148;28;20378;-82
2022/09/09 01:35:12;;;;;;;39.35;35.95;;;18.70;79.40;;;;;;5033389;28;20044;-82
2022/09/09 01:37:38;;;;;;;39.15;36.15;;;18.70;79.30;;;;;;5033170;28;20350;-82
2022/09/09 01:40:05;;;;;;;40.60;37.30;;;18.70;79.40;;;;;;5036684;28;20389;-83
2022/09/09 01:42:31;;;;;;;39.08;35.70;;;18.70;79.40;;;;;;5051416;28;20036;-82
2022/09/09 01:44:57;;;;;;;42.75;39.10;;;18.80;79.40;;;;;;5057495;28;20025;-82
2022/09/09 01:47:23;;;;;;;41.42;37.80;;;18.80;79.50;;;;;;5043658;28;20040;-82
2022/09/09 01:49:49;;;;;;;40.08;36.88;;;18.70;79.10;;;;;;5034309;28;20049;-82
2022/09/09 01:52:15;;;;;;;41.17;38.08;;;18.80;79.50;;;;;;5050902;28;20032;-82
2022/09/09 01:54:41;;;;;;;42.90;39.13;;;18.70;79.50;;;;;;5034427;28;20113;-82
2022/09/09 01:57:26;;;;;;;40.83;37.67;;;18.80;79.40;;;;;;5050945;28;20447;-82
2022/09/09 02:00:09;;;;;;;43.35;39.72;;;18.80;79.60;;;;;;5051956;28;20466;-82
2022/09/09 02:02:53;;;;;;;41.67;38.38;;;18.80;79.50;;;;;;5034093;28;20041;-83
2022/09/09 02:05:22;;;;;;;43.17;40.05;;;18.80;79.60;;;;;;5050693;28;20037;-82
2022/09/09 02:07:49;;;;;;;42.92;39.08;;;18.80;79.60;;;;;;5050926;28;20052;-83
2022/09/09 02:10:28;;;;;;;40.63;37.50;;;18.80;79.40;;;;;;5050637;28;20017;-82
2022/09/09 02:13:01;;;;;;;40.15;36.88;;;18.80;79.50;;;;;;5051697;28;20021;-82
2022/09/09 02:15:32;;;;;;;40.45;37.08;;;18.70;79.80;;;;;;5049772;28;20041;-82
2022/09/09 02:17:59;;;;;;;39.45;36.60;;;18.60;80.10;;;;;;5033693;28;20048;-82
2022/09/09 02:20:27;;;;;;;43.08;39.58;;;18.60;80.20;;;;;;5050370;28;20037;-82
2022/09/09 02:22:53;;;;;;;41.55;37.97;;;18.60;80.10;;;;;;5050406;28;20052;-82
2022/09/09 02:25:21;;;;;;;42.45;38.92;;;18.70;80.00;;;;;;5050485;28;20354;-82
2022/09/09 02:27:48;;;;;;;49.15;45.72;;;18.70;80.20;;;;;;5016705;28;20386;-82
2022/09/09 02:30:14;;;;;;;50.50;46.53;;;18.60;80.80;;;;;;4995199;28;20025;-82
2022/09/09 02:32:40;;;;;;;50.67;47.03;;;18.70;81.20;;;;;;5031416;28;20451;-83
2022/09/09 02:35:15;;;;;;;39.47;36.03;;;18.60;81.90;;;;;;5013945;28;20052;-83
2022/09/09 02:37:42;;;;;;;40.80;37.20;;;18.50;82.60;;;;;;5014385;28;20477;-83
2022/09/09 02:40:10;;;;;;;42.60;39.70;;;18.50;82.70;;;;;;5036177;28;20029;-83
2022/09/09 02:42:40;;;;;;;36.70;33.88;;;18.50;82.60;;;;;;5049952;28;20017;-82
2022/09/09 02:45:08;;;;;;;45.22;42.30;;;18.50;82.70;;;;;;5069646;28;20045;-82
2022/09/09 02:47:36;;;;;;;49.25;45.92;;;18.40;82.40;;;;;;5059119;28;20032;-83
2022/09/09 02:50:08;;;;;;;53.03;49.08;;;18.40;82.80;;;;;;5033307;28;20405;-82
2022/09/09 02:52:52;;;;;;;58.75;55.17;;;18.40;82.50;;;;;;5049852;28;20081;-83
2022/09/09 02:55:43;;;;;;;53.63;50.10;;;18.30;82.30;;;;;;5051074;28;20036;-82
2022/09/09 02:58:11;;;;;;;53.00;49.72;;;18.40;83.00;;;;;;5050916;28;20032;-83
2022/09/09 03:00:38;;;;;;;41.63;38.53;;;18.40;82.10;;;;;;5049437;28;20033;-82
2022/09/09 03:03:05;;;;;;;45.25;41.85;;;18.50;82.10;;;;;;5032955;28;20036;-82
2022/09/09 03:05:31;;;;;;;43.97;40.90;;;18.50;82.40;;;;;;5051008;28;20029;-82
2022/09/09 03:07:58;;;;;;;38.90;35.53;;;18.40;82.70;;;;;;5049585;28;20044;-82
2022/09/09 03:10:24;;;;;;;39.88;36.88;;;18.40;83.00;;;;;;5049536;28;20033;-82
2022/09/09 03:12:50;;;;;;;42.28;39.13;;;18.40;82.70;;;;;;5049145;28;20025;-82
2022/09/09 03:15:16;;;;;;;43.25;39.97;;;18.50;82.30;;;;;;5049101;28;20048;-82
2022/09/09 03:17:42;;;;;;;48.17;44.47;;;18.50;82.30;;;;;;5049479;28;20028;-83
2022/09/09 03:20:09;;;;;;;46.78;43.25;;;18.50;82.40;;;;;;5050583;28;20024;-82
2022/09/09 03:22:35;;;;;;;47.35;43.47;;;18.50;82.50;;;;;;5049267;28;20040;-82
2022/09/09 03:25:02;;;;;;;44.70;41.33;;;18.50;82.50;;;;;;5032825;28;20055;-82
2022/09/09 03:27:28;;;;;;;47.97;44.28;;;18.50;82.00;;;;;;5048904;28;20024;-82
2022/09/09 03:29:55;;;;;;;48.35;44.70;;;18.50;81.90;;;;;;5016198;28;20037;-82
2022/09/09 03:32:22;;;;;;;43.30;39.58;;;18.50;82.10;;;;;;5032456;28;20544;-82
2022/09/09 03:34:49;;;;;;;47.50;43.50;;;18.50;82.00;;;;;;5049263;28;20048;-82
2022/09/09 03:37:17;;;;;;;41.63;38.40;;;18.50;82.10;;;;;;5050380;28;20020;-82
2022/09/09 03:39:43;;;;;;;47.42;43.90;;;18.50;82.20;;;;;;5050409;28;20044;-82
2022/09/09 03:42:12;;;;;;;49.00;45.63;;;18.50;82.20;;;;;;5053028;28;20036;-82
2022/09/09 03:44:38;;;;;;;48.80;45.42;;;18.40;82.20;;;;;;5029782;28;20327;-82
2022/09/09 03:47:06;;;;;;;49.70;45.50;;;18.40;82.20;;;;;;5064469;28;20028;-82
2022/09/09 03:49:32;;;;;;;46.58;42.95;;;18.40;82.30;;;;;;5053324;28;20044;-82
2022/09/09 03:51:58;;;;;;;43.88;40.80;;;18.40;82.10;;;;;;5036758;28;20036;-82
2022/09/09 03:54:25;;;;;;;47.38;43.80;;;18.50;82.00;;;;;;5036280;28;20056;-82
2022/09/09 03:56:51;;;;;;;48.35;44.53;;;18.50;81.80;;;;;;5036460;28;20044;-82
2022/09/09 03:59:17;;;;;;;48.50;45.20;;;18.50;81.90;;;;;;5036049;28;20509;-83
2022/09/09 04:01:45;;;;;;;48.33;44.25;;;18.50;81.70;;;;;;5036087;28;20037;-82
2022/09/09 04:04:12;;;;;;;46.67;43.10;;;18.50;81.50;;;;;;5053022;28;20031;-82
2022/09/09 04:06:38;;;;;;;47.53;43.58;;;18.50;81.80;;;;;;5054298;28;20029;-82
2022/09/09 04:09:04;;;;;;;53.97;49.50;;;18.40;81.70;;;;;;5054240;28;20033;-82
2022/09/09 04:11:30;;;;;;;54.55;50.80;;;18.40;81.90;;;;;;5052515;28;20461;-82
2022/09/09 04:13:56;;;;;;;46.47;43.30;;;18.30;82.00;;;;;;5052927;28;20066;-82
2022/09/09 04:16:22;;;;;;;49.53;46.40;;;18.30;81.90;;;;;;5035382;28;20032;-82
2022/09/09 04:18:48;;;;;;;47.50;43.75;;;18.30;82.10;;;;;;5054131;28;20040;-83
2022/09/09 04:21:15;;;;;;;47.13;43.63;;;18.30;82.20;;;;;;5052810;28;20466;-82
2022/09/09 04:23:42;;;;;;;47.10;44.22;;;18.30;82.40;;;;;;5052511;28;20077;-82
2022/09/09 04:26:08;;;;;;;48.60;44.95;;;18.30;82.30;;;;;;5052435;28;20137;-82
2022/09/09 04:28:35;;;;;;;52.00;48.17;;;18.30;82.50;;;;;;5032117;28;20041;-82
2022/09/09 04:31:16;;;;;;;47.78;44.63;;;18.20;82.50;;;;;;5015841;28;20041;-82
2022/09/09 04:33:42;;;;;;;49.42;45.83;;;18.20;82.70;;;;;;5032834;28;20160;-83
2022/09/09 04:36:08;;;;;;;37.85;34.88;;;18.20;82.70;;;;;;5032675;28;20037;-82
2022/09/09 04:38:34;;;;;;;38.05;34.88;;;18.20;83.20;;;;;;5033575;28;20028;-82
2022/09/09 04:41:01;;;;;;;41.70;38.63;;;18.20;83.10;;;;;;5027599;28;20040;-82
2022/09/09 04:43:27;;;;;;;46.47;43.00;;;18.20;83.40;;;;;;5052190;28;20033;-82
2022/09/09 04:45:53;;;;;;;49.78;46.08;;;18.30;83.20;;;;;;5060210;28;20413;-81
2022/09/09 04:48:20;;;;;;;53.45;49.55;;;18.30;82.80;;;;;;5038477;28;20055;-82
2022/09/09 04:50:57;;;;;;;53.92;49.92;;;18.40;82.70;;;;;;5035521;28;20071;-82
2022/09/09 04:53:23;;;;;;;50.47;46.22;;;18.40;82.50;;;;;;5053251;28;20032;-82
2022/09/09 04:55:49;;;;;;;49.72;46.47;;;18.40;82.10;;;;;;5018522;28;20056;-82
2022/09/09 04:58:15;;;;;;;54.95;50.83;;;18.40;82.40;;;;;;5053190;28;20028;-82
2022/09/09 05:00:42;;;;;;;58.50;54.33;;;18.40;82.60;;;;;;5052743;28;20033;-82
2022/09/09 05:03:08;;;;;;;51.45;47.58;;;18.40;82.50;;;;;;5053468;28;20025;-82
2022/09/09 05:05:35;;;;;;;49.97;46.05;;;18.40;82.60;;;;;;5051837;28;20036;-82
2022/09/09 05:08:05;;;;;;;50.30;45.88;;;18.40;82.40;;;;;;5034437;28;20041;-82
2022/09/09 05:10:31;;;;;;;52.50;49.00;;;18.40;82.40;;;;;;5033571;28;20647;-82
2022/09/09 05:12:57;;;;;;;47.95;44.20;;;18.40;82.40;;;;;;5051686;28;20029;-82
2022/09/09 05:15:23;;;;;;;47.45;44.35;;;18.30;82.60;;;;;;5051274;28;20029;-82
2022/09/09 05:17:51;;;;;;;48.33;44.47;;;18.40;82.30;;;;;;5051742;28;20047;-82
2022/09/09 05:20:17;;;;;;;51.00;47.22;;;18.40;82.20;;;;;;5051398;28;20049;-82
2022/09/09 05:22:43;;;;;;;52.03;48.80;;;18.40;82.30;;;;;;5052390;28;20040;-82
2022/09/09 05:25:09;;;;;;;52.97;48.75;;;18.30;82.10;;;;;;5052885;28;20025;-82
2022/09/09 05:27:35;;;;;;;50.58;47.20;;;18.30;81.90;;;;;;5051153;28;20036;-82
2022/09/09 05:30:02;;;;;;;56.80;52.67;;;18.40;81.70;;;;;;5051445;28;20108;-82
2022/09/09 05:32:33;;;;;;;57.53;53.50;;;18.40;81.80;;;;;;5047283;28;20033;-82
2022/09/09 05:34:59;;;;;;;61.35;57.60;;;18.30;81.90;;;;;;5031951;28;20053;-82
2022/09/09 05:37:25;;;;;;;53.88;49.95;;;18.30;81.90;;;;;;5031801;28;20034;-82
2022/09/09 05:39:51;;;;;;;54.53;51.28;;;18.30;81.90;;;;;;5031074;28;20036;-81
2022/09/09 05:42:17;;;;;;;53.80;49.58;;;18.30;82.00;;;;;;5031609;28;20378;-82
2022/09/09 05:44:44;;;;;;;53.00;49.58;;;18.30;81.90;;;;;;5031131;28;20033;-82
2022/09/09 05:47:11;;;;;;;49.60;46.25;;;18.40;81.70;;;;;;5058636;28;20087;-82
2022/09/09 05:49:37;;;;;;;54.42;50.60;;;18.40;81.70;;;;;;5050852;28;20062;-82
2022/09/09 05:52:03;;;;;;;52.28;48.45;;;18.40;81.70;;;;;;5051913;28;20433;-82
2022/09/09 05:54:30;;;;;;;48.60;45.47;;;18.40;81.70;;;;;;5052306;28;20040;-82
2022/09/09 05:56:56;;;;;;;46.67;42.72;;;18.40;81.80;;;;;;5050822;28;20029;-83
2022/09/09 05:59:23;;;;;;;45.00;41.60;;;18.30;81.80;;;;;;5052025;28;20048;-83
2022/09/09 06:01:49;;;;;;;42.30;39.20;;;18.30;82.00;;;;;;5049894;28;20025;-82
2022/09/09 06:04:15;;;;;;;44.20;41.08;;;18.30;82.10;;;;;;5050087;28;20029;-82
2022/09/09 06:06:42;;;;;;;45.75;42.25;;;18.30;82.00;;;;;;5050328;28;20180;-82
2022/09/09 06:09:10;;;;;;;44.88;41.88;;;18.20;82.30;;;;;;5051942;28;20363;-82
2022/09/09 06:11:37;;;;;;;44.53;41.33;;;18.20;82.50;;;;;;5050531;28;20025;-82
2022/09/09 06:14:03;;;;;;;47.17;43.45;;;18.20;82.50;;;;;;5050625;28;20029;-82
2022/09/09 06:16:30;;;;;;;43.72;40.15;;;18.20;82.50;;;;;;5033462;28;20036;-82
2022/09/09 06:18:56;;;;;;;43.88;40.80;;;18.20;82.60;;;;;;5050572;28;20409;-82
2022/09/09 06:21:24;;;;;;;43.03;40.00;;;18.30;82.70;;;;;;5050129;28;20028;-83
2022/09/09 06:23:51;;;;;;;32.03;29.45;;;18.40;82.20;;;;;;5051808;28;20029;-82
2022/09/09 06:26:19;;;;;;;33.63;31.10;;;18.50;81.60;;;;;;5033707;28;20041;-82
2022/09/09 06:28:49;;;;;;;32.97;30.60;;;18.40;81.70;;;;;;5050279;28;20032;-83
2022/09/09 06:31:23;;;;;;;30.15;27.92;;;18.50;81.30;;;;;;5031550;28;20044;-82
2022/09/09 06:33:50;;;;;;;29.20;27.05;;;18.60;80.90;;;;;;5034715;28;20032;-82
2022/09/09 06:36:17;;;;;;;33.00;30.65;;;18.50;80.30;;;;;;5049960;28;20033;-83
2022/09/09 06:38:44;;;;;;;30.35;28.13;;;18.50;80.50;;;;;;5017503;28;20040;-82
2022/09/09 06:41:11;;;;;;;31.63;28.77;;;18.50;80.50;;;;;;5033489;28;20037;-82
2022/09/09 06:43:37;;;;;;;33.33;30.77;;;18.50;80.30;;;;;;5049920;28;20076;-82
2022/09/09 06:46:10;;;;;;;30.23;27.77;;;18.50;80.70;;;;;;5059526;28;20039;-83
2022/09/09 06:48:36;;;;;;;28.75;26.38;;;18.70;80.60;;;;;;5051672;28;20413;-82
2022/09/09 06:51:07;;;;;;;28.33;26.35;;;18.90;80.20;;;;;;5016571;28;20037;-83
2022/09/09 06:53:34;;;;;;;27.48;25.50;;;19.10;79.50;;;;;;5033503;28;20032;-83
2022/09/09 06:56:09;;;;;;;24.55;22.45;;;19.20;78.50;;;;;;5033193;28;20064;-83
2022/09/09 06:58:42;;;;;;;23.27;21.25;;;19.40;78.50;;;;;;5033833;28;20064;-83
2022/09/09 07:01:09;;;;;;;28.85;26.95;;;19.50;78.10;;;;;;5033818;28;20394;-83
2022/09/09 07:03:35;;;;;;;31.08;28.92;;;19.80;77.20;;;;;;5049662;28;20041;-83
2022/09/09 07:06:01;;;;;;;29.95;28.10;;;20.00;76.90;;;;;;5050640;28;20025;-83
2022/09/09 07:08:28;;;;;;;28.70;26.80;;;20.20;75.30;;;;;;5049780;28;20036;-84
2022/09/09 07:10:54;;;;;;;28.27;26.20;;;20.30;73.90;;;;;;5032952;28;20048;-83
2022/09/09 07:13:27;;;;;;;33.28;31.13;;;20.30;74.70;;;;;;5050632;28;20313;-84
2022/09/09 07:15:53;;;;;;;30.35;28.55;;;20.50;73.90;;;;;;5050364;28;20032;-83
2022/09/09 07:18:19;;;;;;;44.63;41.92;;;20.60;73.20;;;;;;5049359;28;20037;-83
2022/09/09 07:20:56;;;;;;;45.05;42.47;;;20.70;72.90;;;;;;5050450;28;20029;-84
2022/09/09 07:23:22;;;;;;;52.58;49.65;;;20.90;71.70;;;;;;5049476;28;20549;-84
2022/09/09 07:25:48;;;;;;;54.88;51.72;;;21.00;72.30;;;;;;5033014;28;20037;-84
2022/09/09 07:28:14;;;;;;;51.33;48.03;;;21.00;71.20;;;;;;5049379;28;20033;-84
2022/09/09 07:30:41;;;;;;;52.72;49.70;;;21.10;70.50;;;;;;5049043;28;20026;-84
2022/09/09 07:33:07;;;;;;;43.50;40.95;;;21.10;70.50;;;;;;5032406;28;20033;-84
2022/09/09 07:35:33;;;;;;;39.35;36.80;;;21.20;70.30;;;;;;5049014;28;20059;-84
2022/09/09 07:38:00;;;;;;;35.35;33.20;;;21.20;69.70;;;;;;5033182;28;20040;-84
2022/09/09 07:40:26;;;;;;;37.03;34.08;;;21.10;70.30;;;;;;5049391;28;20033;-84
2022/09/09 07:42:53;;;;;;;33.67;31.38;;;21.20;69.60;;;;;;5065813;28;20037;-84
2022/09/09 07:45:19;;;;;;;32.95;30.20;;;21.10;69.20;;;;;;5052304;28;20029;-84
2022/09/09 07:47:45;;;;;;;33.65;31.52;;;21.10;69.40;;;;;;5056128;28;20048;-84
2022/09/09 07:50:11;;;;;;;33.15;30.45;;;21.10;69.50;;;;;;5050507;28;20053;-84
2022/09/09 07:52:37;;;;;;;30.35;28.40;;;21.20;70.10;;;;;;5049271;28;20385;-84
2022/09/09 07:55:04;;;;;;;31.30;29.08;;;21.30;69.80;;;;;;5049219;28;20044;-84
2022/09/09 07:57:30;;;;;;;27.73;25.90;;;21.50;69.10;;;;;;5032899;28;20033;-85
2022/09/09 07:59:57;;;;;;;34.88;31.92;;;21.70;68.30;;;;;;5049196;28;20077;-84
2022/09/09 08:02:25;;;;;;;25.90;24.10;;;21.60;67.90;;;;;;5049605;28;20033;-84
2022/09/09 08:04:51;;;;;;;24.95;23.00;;;21.70;67.60;;;;;;5049126;28;20549;-85
2022/09/09 08:07:18;;;;;;;27.15;25.40;;;21.80;67.40;;;;;;5049130;28;20029;-85
2022/09/09 08:09:44;;;;;;;28.85;26.80;;;21.90;67.30;;;;;;5049149;28;20473;-85
2022/09/09 08:12:10;;;;;;;28.45;26.40;;;22.00;66.80;;;;;;5050267;28;20036;-85
2022/09/09 08:14:36;;;;;;;24.40;22.65;;;22.10;66.60;;;;;;5050065;28;20033;-84
2022/09/09 08:17:02;;;;;;;25.92;24.10;;;22.20;65.40;;;;;;5048217;28;20037;-85
2022/09/09 08:19:33;;;;;;;25.67;23.55;;;22.10;65.10;;;;;;5048825;28;20048;-85
2022/09/09 08:22:01;;;;;;;32.00;29.80;;;22.20;65.10;;;;;;5048958;28;20453;-85
2022/09/09 08:24:27;;;;;;;26.70;24.83;;;22.20;65.60;;;;;;5048808;28;20037;-85
2022/09/09 08:26:53;;;;;;;24.65;22.90;;;22.20;65.40;;;;;;5050517;28;20025;-85
2022/09/09 08:29:20;;;;;;;25.80;23.35;;;22.30;65.50;;;;;;5019324;28;20405;-84
2022/09/09 08:31:47;;;;;;;25.30;23.55;;;22.30;64.50;;;;;;5035224;28;20490;-85
2022/09/09 08:34:14;;;;;;;28.27;26.25;;;22.30;64.50;;;;;;5035965;28;20470;-84
2022/09/09 08:36:42;;;;;;;27.52;25.42;;;22.40;64.70;;;;;;5052632;28;20040;-85
2022/09/09 08:39:09;;;;;;;26.05;24.25;;;22.40;62.90;;;;;;5052662;28;20017;-85
2022/09/09 08:42:16;;;;;;;25.48;23.30;;;22.40;63.20;;;;;;5052205;28;20044;-85
2022/09/09 08:44:57;;;;;;;25.33;23.50;;;22.30;63.20;;;;;;5052949;28;20037;-85
2022/09/09 08:47:43;;;;;;;26.65;24.85;;;22.40;63.00;;;;;;5078512;28;20033;-85
2022/09/09 08:50:27;;;;;;;28.20;26.48;;;22.40;62.80;;;;;;5053212;28;20409;-85
2022/09/09 08:53:10;;;;;;;30.58;28.65;;;22.40;62.70;;;;;;5053259;28;20033;-85
2022/09/09 08:55:48;;;;;;;32.80;30.65;;;22.50;62.60;;;;;;5052035;28;20033;-84
2022/09/09 08:58:18;;;;;;;31.80;29.65;;;22.50;61.30;;;;;;5053474;28;20037;-85
2022/09/09 09:00:59;;;;;;;36.15;34.00;;;22.50;61.90;;;;;;5050947;28;20025;-85
2022/09/09 09:03:41;;;;;;;36.22;33.60;;;22.70;62.20;;;;;;5053251;28;20025;-85
2022/09/09 09:06:37;;;;;;;36.70;34.28;;;22.80;60.50;;;;;;5036437;28;20040;-85
2022/09/09 09:09:35;;;;;;;35.35;33.15;;;22.80;60.90;;;;;;5053227;28;20411;-85
2022/09/09 09:12:02;;;;;;;36.58;34.00;;;22.70;61.00;;;;;;5051887;28;20037;-85
2022/09/09 09:14:30;;;;;;;42.63;39.88;;;22.80;60.80;;;;;;5034700;28;20482;-85
2022/09/09 09:17:03;;;;;;;37.22;34.85;;;22.70;60.30;;;;;;5051246;28;20056;-85
2022/09/09 09:19:30;;;;;;;37.95;35.05;;;22.60;60.50;;;;;;5053114;28;20025;-85
2022/09/09 09:22:20;;;;;;;32.00;29.95;;;22.50;61.10;;;;;;5034734;28;20048;-85
2022/09/09 09:25:04;;;;;;;33.45;31.33;;;22.40;60.80;;;;;;5052001;28;20021;-84
2022/09/09 09:27:36;;;;;;;34.05;31.70;;;22.40;61.80;;;;;;5040889;28;20030;-85
2022/09/09 09:30:15;;;;;;;32.17;30.15;;;22.50;60.40;;;;;;4995054;28;20038;-84
2022/09/09 09:32:43;;;;;;;35.53;33.42;;;22.50;60.00;;;;;;5047514;28;20029;-85
2022/09/09 09:35:12;;;;;;;34.90;32.47;;;22.60;60.70;;;;;;5031616;28;20029;-85
2022/09/09 09:37:40;;;;;;;29.40;27.50;;;22.80;59.90;;;;;;5014357;28;20042;-85
2022/09/09 09:40:13;;;;;;;33.17;31.17;;;22.80;59.10;;;;;;5049371;28;20041;-85
2022/09/09 09:42:56;;;;;;;36.55;34.20;;;22.70;59.10;;;;;;5047931;28;20030;-84
2022/09/09 09:45:33;;;;;;;35.67;33.17;;;22.80;59.50;;;;;;5066363;28;20036;-85
2022/09/09 09:48:04;;;;;;;40.60;37.75;;;22.80;59.20;;;;;;5056581;28;20036;-85
2022/09/09 09:50:31;;;;;;;36.63;34.22;;;22.80;59.40;;;;;;5051321;28;20049;-85
2022/09/09 09:53:16;;;;;;;29.27;27.27;;;22.90;58.50;;;;;;5034537;28;20036;-85
2022/09/09 09:55:49;;;;;;;24.77;22.92;;;22.80;58.50;;;;;;5037201;28;20037;-85
2022/09/09 09:58:15;;;;;;;24.80;23.10;;;22.80;57.90;;;;;;5050548;28;20384;-84
2022/09/09 10:00:52;;;;;;;28.08;26.10;;;22.70;58.10;;;;;;5033714;28;20029;-85
2022/09/09 10:03:32;;;;;;;25.63;23.77;;;22.40;59.10;;;;;;5050872;28;20029;-84
2022/09/09 10:05:58;;;;;;;25.90;24.10;;;22.40;59.30;;;;;;5050863;28;20028;-84
2022/09/09 10:08:27;;;;;;;23.92;22.10;;;22.40;60.00;;;;;;5050869;28;20036;-84
2022/09/09 10:11:16;;;;;;;23.05;21.50;;;22.30;59.90;;;;;;5050646;28;20024;-85
2022/09/09 10:14:21;;;;;;;22.13;20.63;;;22.30;59.70;;;;;;5051649;28;20033;-85
2022/09/09 10:16:55;;;;;;;24.50;22.73;;;22.20;59.70;;;;;;5050184;28;20049;-84
2022/09/09 10:19:27;;;;;;;26.58;24.73;;;22.10;60.90;;;;;;5050616;28;20032;-84
2022/09/09 10:22:18;;;;;;;27.50;25.77;;;22.20;61.10;;;;;;5050532;28;20033;-84
2022/09/09 10:24:59;;;;;;;24.25;22.42;;;22.50;60.40;;;;;;5051494;28;20373;-84
2022/09/09 10:27:31;;;;;;;24.52;22.45;;;22.70;60.30;;;;;;5033582;28;20040;-85
2022/09/09 10:30:23;;;;;;;26.35;24.48;;;22.90;59.50;;;;;;5051731;28;20373;-84
2022/09/09 10:32:52;;;;;;;25.88;23.98;;;23.00;58.80;;;;;;5049458;28;20045;-85
2022/09/09 10:35:36;;;;;;;25.70;23.75;;;23.00;58.00;;;;;;5050318;28;20029;-85
2022/09/09 10:38:14;;;;;;;28.17;25.98;;;22.90;57.80;;;;;;5050341;28;20025;-85
2022/09/09 10:40:53;;;;;;;26.35;24.58;;;22.80;57.80;;;;;;5049995;28;20024;-85
2022/09/09 10:43:34;;;;;;;26.73;24.80;;;22.70;57.70;;;;;;5051577;28;20036;-84
2022/09/09 10:46:22;;;;;;;28.75;26.95;;;22.40;57.60;;;;;;5029668;28;20033;-84
2022/09/09 10:49:14;;;;;;;27.60;25.63;;;22.40;58.60;;;;;;5029749;28;20490;-84
2022/09/09 10:51:47;;;;;;;26.77;24.60;;;22.40;58.90;;;;;;5030440;28;20021;-84
2022/09/09 10:54:24;;;;;;;31.48;29.25;;;22.40;58.70;;;;;;5030034;28;20409;-85
2022/09/09 10:56:58;;;;;;;34.60;32.70;;;22.40;59.30;;;;;;5029892;28;20037;-84
2022/09/09 10:59:26;;;;;;;36.58;34.25;;;22.50;59.80;;;;;;5014216;28;20037;-84
2022/09/09 11:02:06;;;;;;;38.53;36.17;;;22.40;60.00;;;;;;4996844;28;20049;-84
2022/09/09 11:04:42;;;;;;;37.47;35.20;;;22.30;60.80;;;;;;4999748;28;20096;-83
2022/09/09 11:07:14;;;;;;;34.25;32.25;;;22.40;60.50;;;;;;5014385;28;20060;-85
2022/09/09 11:09:48;;;;;;;34.30;32.03;;;22.50;60.20;;;;;;5013060;28;20044;-85
2022/09/09 11:12:17;;;;;;;32.30;30.38;;;22.80;58.90;;;;;;5013603;28;20482;-85
2022/09/09 11:14:49;;;;;;;28.83;27.10;;;23.00;58.70;;;;;;4997683;28;20042;-84
2022/09/09 11:17:18;;;;;;;27.75;26.05;;;23.20;56.50;;;;;;5013125;28;20037;-84
2022/09/09 11:19:44;;;;;;;27.65;25.80;;;23.20;56.10;;;;;;4997478;28;20034;-85
2022/09/09 11:22:40;;;;;;;30.13;28.25;;;23.20;55.30;;;;;;5029628;28;20045;-85
2022/09/09 11:25:15;;;;;;;27.98;26.30;;;23.10;55.30;;;;;;5029493;28;20045;-85
2022/09/09 11:28:15;;;;;;;29.23;27.20;;;23.00;55.80;;;;;;5021589;28;20033;-85
2022/09/09 11:30:44;;;;;;;29.33;27.48;;;23.00;57.00;;;;;;5049169;28;20036;-84
2022/09/09 11:33:35;;;;;;;29.17;27.15;;;22.80;58.00;;;;;;5050725;28;20024;-85
2022/09/09 11:36:19;;;;;;;29.27;27.42;;;22.80;58.00;;;;;;5049499;28;20037;-84
2022/09/09 11:38:52;;;;;;;29.27;27.48;;;22.80;58.60;;;;;;5049352;28;20029;-85
2022/09/09 11:41:20;;;;;;;30.65;28.88;;;22.80;59.20;;;;;;5032629;28;20025;-85
2022/09/09 11:43:53;;;;;;;34.22;32.13;;;23.00;59.90;;;;;;5049546;28;20381;-85
2022/09/09 11:46:20;;;;;;;37.33;34.97;;;23.20;58.50;;;;;;5042690;28;20412;-85
2022/09/09 11:49:00;;;;;;;35.13;32.80;;;23.30;58.20;;;;;;5032592;28;20041;-85
2022/09/09 11:51:28;;;;;;;31.05;29.20;;;23.50;57.40;;;;;;5033036;28;20033;-85
2022/09/09 11:54:02;;;;;;;31.25;28.88;;;23.60;56.60;;;;;;5049418;28;20021;-85
2022/09/09 11:56:33;;;;;;;32.35;30.17;;;23.60;56.20;;;;;;5033294;28;20037;-85
2022/09/09 11:59:05;;;;;;;31.83;29.95;;;23.70;56.50;;;;;;5033195;28;20496;-85
2022/09/09 12:01:38;;;;;;;31.48;29.70;;;23.80;56.20;;;;;;5050035;28;20033;-85
2022/09/09 12:04:21;;;;;;;35.83;33.83;;;24.00;54.90;;;;;;5053224;28;20041;-85
2022/09/09 12:07:02;;;;;;;33.33;31.33;;;24.10;55.00;;;;;;5052808;28;20040;-85
2022/09/09 12:09:51;;;;;;;32.58;30.85;;;24.20;53.90;;;;;;5052862;28;20036;-85
2022/09/09 12:12:36;;;;;;;32.60;30.80;;;24.20;53.40;;;;;;5054268;28;20025;-85
2022/09/09 12:15:07;;;;;;;27.02;25.40;;;24.20;53.90;;;;;;5053030;28;20438;-85
2022/09/09 12:17:43;;;;;;;30.98;29.17;;;24.20;53.60;;;;;;5051661;28;20043;-85
2022/09/09 12:20:20;;;;;;;27.67;26.05;;;24.20;53.00;;;;;;5052721;28;20028;-85
2022/09/09 12:22:53;;;;;;;29.42;27.58;;;24.20;53.20;;;;;;5052751;28;20017;-86
2022/09/09 12:25:44;;;;;;;32.25;30.25;;;24.00;53.20;;;;;;5052652;28;20053;-85
2022/09/09 12:28:42;;;;;;;28.65;26.88;;;24.00;53.30;;;;;;5052628;28;20041;-85
2022/09/09 12:31:30;;;;;;;29.98;28.08;;;23.90;52.80;;;;;;5038629;28;20040;-85
2022/09/09 12:34:04;;;;;;;30.35;28.55;;;23.80;52.20;;;;;;5040379;28;20548;-84
2022/09/09 12:36:30;;;;;;;28.23;26.48;;;23.60;52.80;;;;;;5038054;28;20148;-85
2022/09/09 12:38:58;;;;;;;28.85;26.92;;;23.50;53.30;;;;;;5020234;28;20029;-84
2022/09/09 12:41:26;;;;;;;31.95;29.83;;;23.40;53.60;;;;;;5019798;28;20049;-84
2022/09/09 12:44:07;;;;;;;33.50;31.38;;;23.30;53.90;;;;;;5051885;28;20048;-84
2022/09/09 12:46:41;;;;;;;30.88;28.63;;;23.40;54.90;;;;;;5034392;28;20036;-84
2022/09/09 12:49:28;;;;;;;26.35;24.58;;;23.60;55.10;;;;;;5034186;28;20045;-84
2022/09/09 12:51:54;;;;;;;27.15;25.42;;;23.90;53.60;;;;;;5034671;28;20037;-85